createdAt,value
2019-04-03T00:01:40.564Z,7.70
2019-04-03T00:04:09.041Z,7.70
2019-04-03T00:06:37.487Z,7.60
2019-04-03T00:09:07.564Z,7.60
2019-04-03T00:11:39.376Z,7.60
2019-04-03T00:14:06.948Z,7.60
2019-04-03T00:16:35.503Z,7.60
2019-04-03T00:19:04.085Z,7.50
2019-04-03T00:21:32.547Z,7.50
2019-04-03T00:24:01.020Z,7.50
2019-04-03T00:26:30.831Z,7.40
2019-04-03T00:28:59.682Z,7.50
2019-04-03T00:31:28.238Z,7.40
2019-04-03T00:33:56.686Z,7.40
2019-04-03T00:36:25.128Z,7.30
2019-04-03T00:38:54.365Z,7.20
2019-04-03T00:41:24.780Z,7.20
2019-04-03T00:43:54.874Z,7.20
2019-04-03T00:46:24.473Z,7.20
2019-04-03T00:48:55.344Z,7.10
2019-04-03T00:51:23.843Z,7.00
2019-04-03T00:53:52.301Z,7.00
2019-04-03T00:56:20.763Z,7.00
2019-04-03T00:58:49.248Z,7.00
2019-04-03T01:01:17.927Z,6.90
2019-04-03T01:03:46.719Z,6.90
2019-04-03T01:06:15.192Z,6.90
2019-04-03T01:08:43.694Z,6.90
2019-04-03T01:11:12.294Z,7.00
2019-04-03T01:13:40.815Z,6.90
2019-04-03T01:16:09.271Z,6.90
2019-04-03T01:18:37.721Z,7.00
2019-04-03T01:21:06.906Z,7.00
2019-04-03T01:23:37.818Z,6.90
2019-04-03T01:26:05.950Z,7.00
2019-04-03T01:28:34.470Z,6.90
2019-04-03T01:31:02.927Z,6.90
2019-04-03T01:33:31.388Z,6.90
2019-04-03T01:35:59.837Z,6.90
2019-04-03T01:38:28.331Z,7.00
2019-04-03T01:40:56.844Z,6.90
2019-04-03T01:43:25.386Z,6.90
2019-04-03T01:45:56.512Z,6.90
2019-04-03T01:48:24.019Z,7.00
2019-04-03T01:50:52.538Z,6.80
2019-04-03T01:53:21.015Z,6.80
2019-04-03T01:55:49.536Z,6.90
2019-04-03T01:58:18.092Z,7.00
2019-04-03T02:00:46.695Z,6.90
2019-04-03T02:03:15.628Z,6.80
2019-04-03T02:05:45.975Z,6.70
2019-04-03T02:08:15.139Z,6.80
2019-04-03T02:10:44.126Z,7.00
2019-04-03T02:13:13.154Z,7.10
2019-04-03T02:15:45.026Z,6.80
2019-04-03T02:18:13.975Z,6.70
2019-04-03T02:20:42.967Z,6.80
2019-04-03T02:23:12.111Z,6.70
2019-04-03T02:25:40.982Z,6.70
2019-04-03T02:28:09.886Z,6.70
2019-04-03T02:30:38.708Z,6.80
2019-04-03T02:33:07.573Z,6.90
2019-04-03T02:35:38.746Z,6.90
2019-04-03T02:38:06.791Z,6.90
2019-04-03T02:40:35.422Z,7.00
2019-04-03T02:43:03.949Z,7.20
2019-04-03T02:45:32.740Z,7.30
2019-04-03T02:48:04.785Z,7.40
2019-04-03T02:50:31.551Z,7.40
2019-04-03T02:53:03.128Z,7.40
2019-04-03T02:55:31.719Z,7.40
2019-04-03T02:58:00.587Z,7.50
2019-04-03T03:00:31.612Z,7.30
2019-04-03T03:02:59.369Z,7.30
2019-04-03T03:05:28.880Z,7.40
2019-04-03T03:07:57.752Z,7.30
2019-04-03T03:10:30.603Z,7.50
2019-04-03T03:12:59.867Z,7.30
2019-04-03T03:15:28.212Z,7.30
2019-04-03T03:17:57.032Z,7.40
2019-04-03T03:20:26.694Z,7.00
2019-04-03T03:22:56.643Z,7.10
2019-04-03T03:25:25.848Z,7.40
2019-04-03T03:27:54.518Z,7.50
2019-04-03T03:30:41.136Z,7.20
2019-04-03T03:33:19.894Z,7.40
2019-04-03T03:35:30.125Z,7.40
2019-04-03T03:37:55.314Z,7.40
2019-04-03T03:40:25.379Z,7.40
2019-04-03T03:42:54.373Z,7.40
2019-04-03T03:45:23.696Z,7.30
2019-04-03T03:47:53.350Z,7.40
2019-04-03T03:50:25.189Z,7.50
2019-04-03T03:52:54.920Z,7.30
2019-04-03T03:55:25.543Z,7.40
2019-04-03T03:57:54.448Z,7.50
2019-04-03T04:00:24.260Z,7.40
2019-04-03T04:02:54.054Z,7.50
2019-04-03T04:05:23.134Z,7.60
2019-04-03T04:07:52.080Z,7.50
2019-04-03T04:10:23.991Z,7.50
2019-04-03T04:12:51.608Z,7.60
2019-04-03T04:15:20.272Z,7.40
2019-04-03T04:17:51.130Z,7.50
2019-04-03T04:20:19.130Z,7.50
2019-04-03T04:22:50.752Z,7.40
2019-04-03T04:25:18.821Z,7.50
2019-04-03T04:27:47.317Z,7.50
2019-04-03T04:30:18.642Z,7.30
2019-04-03T04:32:47.246Z,7.20
2019-04-03T04:35:15.865Z,7.20
2019-04-03T04:37:44.338Z,7.30
2019-04-03T04:40:13.215Z,7.30
2019-04-03T04:42:41.826Z,7.20
2019-04-03T04:45:11.828Z,7.30
2019-04-03T04:47:41.190Z,7.20
2019-04-03T04:50:09.879Z,7.20
2019-04-03T04:52:38.348Z,7.20
2019-04-03T04:55:07.008Z,7.20
2019-04-03T04:57:35.531Z,7.30
2019-04-03T05:00:06.711Z,7.50
2019-04-03T05:02:35.253Z,7.20
2019-04-03T05:05:08.339Z,7.10
2019-04-03T05:07:35.440Z,7.30
2019-04-03T05:10:06.485Z,7.30
2019-04-03T05:12:35.141Z,7.20
2019-04-03T05:15:05.027Z,7.40
2019-04-03T05:17:33.725Z,7.30
2019-04-03T05:20:02.380Z,7.50
2019-04-03T05:22:30.822Z,7.50
2019-04-03T05:25:00.012Z,7.50
2019-04-03T05:27:28.610Z,7.50
2019-04-03T05:29:57.172Z,7.40
2019-04-03T05:32:25.691Z,7.50
2019-04-03T05:34:54.220Z,7.50
2019-04-03T05:37:23.595Z,7.40
2019-04-03T05:39:54.668Z,7.50
2019-04-03T05:42:22.430Z,7.50
2019-04-03T05:44:50.896Z,7.50
2019-04-03T05:47:19.365Z,7.60
2019-04-03T05:49:50.702Z,7.60
2019-04-03T05:52:18.324Z,7.50
2019-04-03T05:54:47.008Z,7.60
2019-04-03T05:57:15.471Z,7.60
2019-04-03T05:59:44.638Z,7.60
2019-04-03T06:02:16.090Z,7.50
2019-04-03T06:04:43.465Z,7.60
2019-04-03T06:07:12.263Z,7.50
2019-04-03T06:09:40.979Z,7.50
2019-04-03T06:12:13.061Z,7.40
2019-04-03T06:14:42.791Z,7.40
2019-04-03T06:17:11.627Z,7.30
2019-04-03T06:19:40.310Z,7.30
2019-04-03T06:22:10.662Z,7.30
2019-04-03T06:24:39.245Z,7.30
2019-04-03T06:27:10.322Z,7.30
2019-04-03T06:29:38.141Z,7.50
2019-04-03T06:32:06.631Z,7.50
2019-04-03T06:34:38.057Z,7.60
2019-04-03T06:37:05.451Z,7.50
2019-04-03T06:39:35.296Z,7.70
2019-04-03T06:42:03.928Z,7.80
2019-04-03T06:44:32.591Z,7.70
2019-04-03T06:47:01.584Z,7.60
2019-04-03T06:49:30.457Z,7.70
2019-04-03T06:51:58.923Z,7.70
2019-04-03T06:54:27.361Z,7.50
2019-04-03T06:56:55.838Z,7.60
2019-04-03T06:59:24.379Z,7.60
2019-04-03T07:01:53.588Z,7.60
2019-04-03T07:04:22.253Z,7.50
2019-04-03T07:06:51.685Z,7.70
2019-04-03T07:09:23.952Z,7.80
2019-04-03T07:11:50.499Z,7.70
2019-04-03T07:14:19.055Z,7.90
2019-04-03T07:16:47.747Z,7.60
2019-04-03T07:19:16.685Z,7.70
2019-04-03T07:21:45.436Z,7.80
2019-04-03T07:24:13.959Z,8.00
2019-04-03T07:26:42.437Z,8.10
2019-04-03T07:29:11.860Z,8.20
2019-04-03T07:31:41.069Z,8.10
2019-04-03T07:34:09.531Z,8.10
2019-04-03T07:36:40.848Z,7.80
2019-04-03T07:39:10.911Z,8.20
2019-04-03T07:41:41.074Z,8.10
2019-04-03T07:44:09.187Z,8.30
2019-04-03T07:46:37.654Z,8.30
2019-04-03T07:49:06.786Z,8.40
2019-04-03T07:51:36.738Z,8.20
2019-04-03T07:54:05.481Z,8.30
2019-04-03T07:56:34.028Z,8.30
2019-04-03T07:59:02.988Z,8.40
2019-04-03T08:01:32.345Z,8.30
2019-04-03T08:04:00.943Z,8.30
2019-04-03T08:06:29.398Z,8.30
2019-04-03T08:09:07.906Z,8.20
2019-04-03T08:11:28.227Z,8.10
2019-04-03T08:13:56.811Z,8.40
2019-04-03T08:16:25.410Z,8.50
2019-04-03T08:18:53.940Z,8.50
2019-04-03T08:21:22.402Z,8.70
2019-04-03T08:23:50.880Z,8.50
2019-04-03T08:26:19.920Z,8.50
2019-04-03T08:28:48.493Z,8.70
2019-04-03T08:31:17.925Z,8.90
2019-04-03T08:33:46.440Z,8.90
2019-04-03T08:36:23.984Z,8.80
2019-04-03T08:38:45.524Z,9.00
2019-04-03T08:41:14.399Z,9.10
2019-04-03T08:43:43.405Z,8.90
2019-04-03T08:46:12.134Z,8.90
2019-04-03T08:48:40.594Z,9.10
2019-04-03T08:51:09.061Z,9.00
2019-04-03T08:53:39.607Z,9.00
2019-04-03T08:56:07.835Z,9.00
2019-04-03T08:58:37.108Z,8.80
2019-04-03T09:01:05.744Z,8.70
2019-04-03T09:03:35.282Z,9.00
2019-04-03T09:06:03.853Z,9.10
2019-04-03T09:08:32.406Z,8.80
2019-04-03T09:11:01.041Z,8.70
2019-04-03T09:13:29.594Z,8.90
2019-04-03T09:15:59.406Z,8.80
2019-04-03T09:18:30.113Z,8.80
2019-04-03T09:20:58.555Z,8.70
2019-04-03T09:23:27.278Z,8.60
2019-04-03T09:25:55.822Z,8.50
2019-04-03T09:28:24.275Z,8.90
2019-04-03T09:30:54.481Z,9.10
2019-04-03T09:33:24.971Z,9.20
2019-04-03T09:35:53.290Z,9.30
2019-04-03T09:38:21.783Z,9.30
2019-04-03T09:40:50.515Z,9.40
2019-04-03T09:43:20.081Z,9.50
2019-04-03T09:45:49.310Z,9.60
2019-04-03T09:48:17.875Z,9.60
2019-04-03T09:50:47.248Z,9.60
2019-04-03T09:53:16.312Z,9.80
2019-04-03T09:55:46.089Z,9.70
2019-04-03T09:58:14.863Z,9.50
2019-04-03T10:00:43.648Z,9.30
2019-04-03T10:03:12.095Z,9.40
2019-04-03T10:05:40.674Z,9.40
2019-04-03T10:08:09.685Z,9.40
2019-04-03T10:10:38.357Z,9.10
2019-04-03T10:13:06.975Z,8.90
2019-04-03T10:15:35.684Z,9.00
2019-04-03T10:18:04.758Z,9.10
2019-04-03T10:20:33.284Z,9.10
2019-04-03T10:23:01.781Z,9.00
2019-04-03T10:25:30.603Z,8.90
2019-04-03T10:27:59.957Z,9.20
2019-04-03T10:30:28.663Z,9.30
2019-04-03T10:32:59.521Z,9.40
2019-04-03T10:35:27.519Z,9.30
2019-04-03T10:37:56.745Z,9.20
2019-04-03T10:40:25.481Z,9.40
2019-04-03T10:42:55.042Z,9.80
2019-04-03T10:45:24.032Z,10.40
2019-04-03T10:47:56.322Z,10.50
2019-04-03T10:50:25.228Z,10.30
2019-04-03T10:52:54.234Z,10.10
2019-04-03T10:55:23.812Z,10.10
2019-04-03T10:57:52.637Z,10.30
2019-04-03T11:00:23.520Z,10.10
2019-04-03T11:02:52.150Z,9.90
2019-04-03T11:05:20.732Z,10.10
2019-04-03T11:07:49.245Z,10.20
2019-04-03T11:10:17.887Z,10.20
2019-04-03T11:12:46.484Z,10.20
2019-04-03T11:15:15.813Z,10.00
2019-04-03T11:17:44.305Z,10.00
2019-04-03T11:20:14.540Z,10.10
2019-04-03T11:22:43.508Z,10.20
2019-04-03T11:25:15.303Z,10.20
2019-04-03T11:27:44.586Z,10.30
2019-04-03T11:30:18.182Z,10.30
2019-04-03T11:32:45.167Z,10.20
2019-04-03T11:35:15.178Z,10.20
2019-04-03T11:37:43.837Z,10.10
2019-04-03T11:40:13.874Z,10.20
2019-04-03T11:42:42.459Z,10.20
2019-04-03T11:45:11.661Z,10.30
2019-04-03T11:47:40.540Z,10.20
2019-04-03T11:50:11.142Z,10.10
2019-04-03T11:52:39.981Z,10.10
2019-04-03T11:55:10.920Z,10.10
2019-04-03T11:57:39.760Z,10.10
2019-04-03T12:00:12.083Z,10.10
2019-04-03T12:02:43.750Z,10.10
2019-04-03T12:05:15.179Z,10.10
2019-04-03T12:07:43.335Z,10.20
2019-04-03T12:10:12.009Z,10.40
2019-04-03T12:12:42.047Z,10.60
2019-04-03T12:15:11.012Z,10.60
2019-04-03T12:17:39.827Z,10.50
2019-04-03T12:20:10.125Z,10.40
2019-04-03T12:22:39.771Z,10.50
2019-04-03T12:25:08.725Z,10.60
2019-04-03T12:27:37.627Z,10.70
2019-04-03T12:30:08.442Z,10.60
2019-04-03T12:32:42.680Z,11.00
2019-04-03T12:35:09.924Z,11.10
2019-04-03T12:37:38.555Z,10.80
2019-04-03T12:40:08.378Z,10.80
2019-04-03T12:42:36.890Z,10.60
2019-04-03T12:45:08.827Z,10.20
2019-04-03T12:47:37.463Z,10.30
2019-04-03T12:50:08.537Z,10.20
2019-04-03T12:52:37.077Z,10.20
2019-04-03T12:55:07.254Z,10.20
2019-04-03T12:57:38.956Z,10.20
2019-04-03T13:00:11.564Z,10.10
2019-04-03T13:02:40.153Z,10.40
2019-04-03T13:05:09.277Z,10.60
2019-04-03T13:07:38.216Z,10.20
2019-04-03T13:10:08.718Z,10.00
2019-04-03T13:12:37.393Z,10.10
2019-04-03T13:15:10.618Z,9.90
2019-04-03T13:17:39.298Z,9.60
2019-04-03T13:20:08.390Z,10.20
2019-04-03T13:22:37.185Z,10.60
2019-04-03T13:25:07.814Z,10.90
2019-04-03T13:27:36.379Z,10.70
2019-04-03T13:30:13.735Z,10.70
2019-04-03T13:32:42.954Z,10.50
2019-04-03T13:35:14.596Z,11.20
2019-04-03T13:37:43.008Z,11.60
2019-04-03T13:40:12.335Z,11.60
2019-04-03T13:42:40.828Z,12.00
2019-04-03T13:45:10.394Z,12.40
2019-04-03T13:47:41.519Z,12.60
2019-04-03T13:50:10.678Z,12.50
2019-04-03T13:52:43.055Z,12.40
2019-04-03T13:55:10.173Z,13.00
2019-04-03T13:57:38.785Z,13.10
2019-04-03T14:00:20.567Z,13.10
2019-04-03T14:02:40.110Z,12.90
2019-04-03T14:05:09.108Z,12.80
2019-04-03T14:07:40.525Z,12.40
2019-04-03T14:10:09.765Z,12.20
2019-04-03T14:12:42.851Z,12.30
2019-04-03T14:15:09.882Z,12.30
2019-04-03T14:17:38.624Z,12.40
2019-04-03T14:20:09.846Z,11.90
2019-04-03T14:22:39.498Z,11.80
2019-04-03T14:25:19.950Z,12.00
2019-04-03T14:27:38.818Z,11.90
2019-04-03T14:30:11.171Z,11.60
2019-04-03T14:32:40.104Z,11.70
2019-04-03T14:35:34.160Z,11.60
2019-04-03T14:37:39.700Z,11.40
2019-04-03T14:40:10.952Z,11.10
2019-04-03T14:42:38.952Z,11.10
2019-04-03T14:45:08.092Z,11.30
2019-04-03T14:47:36.752Z,11.30
2019-04-03T14:50:07.211Z,11.30
2019-04-03T14:52:36.237Z,11.20
2019-04-03T14:55:18.663Z,11.00
2019-04-03T14:57:37.530Z,11.00
2019-04-03T15:00:25.222Z,11.00
2019-04-03T15:02:42.217Z,11.00
2019-04-03T15:05:11.022Z,10.70
2019-04-03T15:07:40.425Z,10.30
2019-04-03T15:10:09.727Z,10.20
2019-04-03T15:12:39.796Z,9.50
2019-04-03T15:15:09.646Z,9.30
2019-04-03T15:17:38.910Z,9.00
2019-04-03T15:20:09.450Z,9.20
2019-04-03T15:22:38.195Z,9.00
2019-04-03T15:25:08.774Z,9.10
2019-04-03T15:27:37.971Z,8.80
2019-04-03T15:30:09.893Z,8.70
2019-04-03T15:32:38.276Z,8.80
2019-04-03T15:35:08.252Z,9.30
2019-04-03T15:37:39.964Z,9.40
2019-04-03T15:40:09.292Z,9.70
2019-04-03T15:42:39.773Z,10.10
2019-04-03T15:45:09.068Z,10.10
2019-04-03T15:47:41.773Z,10.30
2019-04-03T15:50:08.628Z,9.90
2019-04-03T15:52:38.588Z,10.20
2019-04-03T15:55:08.633Z,10.50
2019-04-03T15:57:39.591Z,10.60
2019-04-03T16:00:10.364Z,10.50
2019-04-03T16:02:39.228Z,10.40
2019-04-03T16:05:08.452Z,10.40
2019-04-03T16:07:40.443Z,10.20
2019-04-03T16:10:07.749Z,10.20
2019-04-03T16:12:38.342Z,10.30
2019-04-03T16:15:09.231Z,10.20
2019-04-03T16:17:39.141Z,10.10
2019-04-03T16:20:08.582Z,10.10
2019-04-03T16:22:37.211Z,10.00
2019-04-03T16:25:08.149Z,10.00
2019-04-03T16:27:37.398Z,9.90
2019-04-03T16:30:08.584Z,10.00
2019-04-03T16:32:37.684Z,9.70
2019-04-03T16:35:08.305Z,9.80
2019-04-03T16:37:38.414Z,10.00
2019-04-03T16:40:09.055Z,10.00
2019-04-03T16:42:38.070Z,9.80
2019-04-03T16:45:09.431Z,9.80
2019-04-03T16:47:38.151Z,9.60
2019-04-03T16:50:09.802Z,9.70
2019-04-03T16:52:38.744Z,10.00
2019-04-03T16:55:09.054Z,10.20
2019-04-03T16:57:38.153Z,10.20
2019-04-03T17:00:09.564Z,10.20
2019-04-03T17:02:38.933Z,10.40
2019-04-03T17:05:10.212Z,10.00
2019-04-03T17:07:38.512Z,9.80
2019-04-03T17:10:09.377Z,9.90
2019-04-03T17:12:38.038Z,9.90
2019-04-03T17:15:08.732Z,9.90
2019-04-03T17:17:37.634Z,9.70
2019-04-03T17:20:09.744Z,9.60
2019-04-03T17:22:40.930Z,9.70
2019-04-03T17:25:08.965Z,9.90
2019-04-03T17:27:39.288Z,10.10
2019-04-03T17:30:10.180Z,10.30
2019-04-03T17:32:39.228Z,10.20
2019-04-03T17:35:07.990Z,10.20
2019-04-03T17:37:37.291Z,10.00
2019-04-03T17:40:08.849Z,10.10
2019-04-03T17:42:39.500Z,10.20
2019-04-03T17:45:07.943Z,10.30
2019-04-03T17:47:36.429Z,10.00
2019-04-03T17:50:06.980Z,9.50
2019-04-03T17:52:36.516Z,9.90
2019-04-03T17:55:10.609Z,9.90
2019-04-03T17:57:39.294Z,10.00
2019-04-03T18:00:16.424Z,9.80
2019-04-03T18:02:44.974Z,9.50
2019-04-03T18:05:13.765Z,9.50
2019-04-03T18:07:42.203Z,9.50
2019-04-03T18:10:13.109Z,9.50
2019-04-03T18:12:41.683Z,9.20
2019-04-03T18:15:15.715Z,9.10
2019-04-03T18:17:45.045Z,9.10
2019-04-03T18:20:13.873Z,9.10
2019-04-03T18:22:42.413Z,9.20
2019-04-03T18:25:11.530Z,9.20
2019-04-03T18:27:39.974Z,9.30
2019-04-03T18:30:11.870Z,9.30
2019-04-03T18:32:40.168Z,9.40
2019-04-03T18:35:10.239Z,9.40
2019-04-03T18:37:40.962Z,9.50
2019-04-03T18:40:13.980Z,9.50
2019-04-03T18:42:41.405Z,9.60
2019-04-03T18:45:10.091Z,9.50
2019-04-03T18:47:41.562Z,9.60
2019-04-03T18:50:10.537Z,9.60
2019-04-03T18:52:40.502Z,9.70
2019-04-03T18:55:09.636Z,9.40
2019-04-03T18:57:40.089Z,9.30
2019-04-03T19:00:09.966Z,9.20
2019-04-03T19:02:38.492Z,9.20
2019-04-03T19:05:10.145Z,9.30
2019-04-03T19:07:38.658Z,9.30
2019-04-03T19:10:08.021Z,9.10
2019-04-03T19:12:36.752Z,9.10
2019-04-03T19:15:07.003Z,9.10
2019-04-03T19:17:35.611Z,8.90
2019-04-03T19:20:10.795Z,9.10
2019-04-03T19:22:35.691Z,9.10
2019-04-03T19:25:08.326Z,9.00
2019-04-03T19:27:36.853Z,9.00
2019-04-03T19:30:09.044Z,9.20
2019-04-03T19:32:37.509Z,9.10
2019-04-03T19:35:09.455Z,8.90
2019-04-03T19:37:37.684Z,8.80
2019-04-03T19:40:09.453Z,8.90
2019-04-03T19:42:37.506Z,8.80
2019-04-03T19:45:07.613Z,8.70
2019-04-03T19:47:36.078Z,8.90
2019-04-03T19:50:06.976Z,8.90
2019-04-03T19:52:37.231Z,8.80
2019-04-03T19:55:08.348Z,8.90
2019-04-03T19:57:36.813Z,9.00
2019-04-03T20:00:07.975Z,8.90
2019-04-03T20:02:38.005Z,9.10
2019-04-03T20:05:07.776Z,8.80
2019-04-03T20:07:36.231Z,8.90
2019-04-03T20:10:10.283Z,8.90
2019-04-03T20:12:38.855Z,8.60
2019-04-03T20:15:08.520Z,8.80
2019-04-03T20:17:37.007Z,8.70
2019-04-03T20:20:07.051Z,9.00
2019-04-03T20:22:37.417Z,8.90
2019-04-03T20:25:06.277Z,8.80
2019-04-03T20:27:34.809Z,8.40
2019-04-03T20:30:05.413Z,8.30
2019-04-03T20:32:33.870Z,8.20
2019-04-03T20:35:02.328Z,8.30
2019-04-03T20:37:30.790Z,8.40
2019-04-03T20:40:00.042Z,8.60
2019-04-03T20:42:29.109Z,8.60
2019-04-03T20:44:57.654Z,8.60
2019-04-03T20:47:26.863Z,8.40
2019-04-03T20:49:56.025Z,8.40
2019-04-03T20:52:24.520Z,8.70
2019-04-03T20:54:53.755Z,8.30
2019-04-03T20:57:22.482Z,8.30
2019-04-03T20:59:58.667Z,8.20
2019-04-03T21:02:22.957Z,8.20
2019-04-03T21:04:52.978Z,8.30
2019-04-03T21:07:23.743Z,8.10
2019-04-03T21:09:51.693Z,8.00
2019-04-03T21:12:20.172Z,8.00
2019-04-03T21:14:49.191Z,8.10
2019-04-03T21:17:18.922Z,8.00
2019-04-03T21:19:47.893Z,7.90
2019-04-03T21:22:16.478Z,8.10
2019-04-03T21:24:44.935Z,8.10
2019-04-03T21:27:13.389Z,8.10
2019-04-03T21:29:42.196Z,8.00
2019-04-03T21:32:10.810Z,8.00
2019-04-03T21:34:39.324Z,8.10
2019-04-03T21:37:09.587Z,8.10
2019-04-03T21:39:38.034Z,7.80
2019-04-03T21:42:06.506Z,7.90
2019-04-03T21:44:35.027Z,7.90
2019-04-03T21:47:03.484Z,7.70
2019-04-03T21:49:31.931Z,7.80
2019-04-03T21:52:00.405Z,7.90
2019-04-03T21:54:28.846Z,7.80
2019-04-03T21:56:57.296Z,7.90
2019-04-03T21:59:25.817Z,7.80
2019-04-03T22:01:54.339Z,7.80
2019-04-03T22:04:23.442Z,7.80
2019-04-03T22:06:51.935Z,7.70
2019-04-03T22:09:20.442Z,7.70
2019-04-03T22:11:48.908Z,7.50
2019-04-03T22:14:17.424Z,7.50
2019-04-03T22:16:45.893Z,7.40
2019-04-03T22:19:14.479Z,7.20
2019-04-03T22:21:42.968Z,7.20
2019-04-03T22:24:11.549Z,7.20
2019-04-03T22:26:40.704Z,7.00
2019-04-03T22:29:09.899Z,7.00
2019-04-03T22:31:38.381Z,7.10
2019-04-03T22:34:06.910Z,7.00
2019-04-03T22:36:35.448Z,7.30
2019-04-03T22:39:06.055Z,7.10
2019-04-03T22:41:35.366Z,7.20
2019-04-03T22:44:04.177Z,7.20
2019-04-03T22:46:32.610Z,7.10
2019-04-03T22:49:01.055Z,7.20
2019-04-03T22:51:29.609Z,7.10
2019-04-03T22:53:58.139Z,7.20
2019-04-03T22:56:26.668Z,7.30
2019-04-03T22:58:56.237Z,7.20
2019-04-03T23:01:24.720Z,7.20
2019-04-03T23:03:53.244Z,7.20
2019-04-03T23:06:21.957Z,7.20
2019-04-03T23:08:51.843Z,7.10
2019-04-03T23:11:21.147Z,7.10
2019-04-03T23:13:49.601Z,6.90
2019-04-03T23:16:18.047Z,6.80
2019-04-03T23:18:46.858Z,7.00
2019-04-03T23:21:15.928Z,7.10
2019-04-03T23:23:44.378Z,7.00
2019-04-03T23:26:12.837Z,6.90
2019-04-03T23:28:41.314Z,7.00
2019-04-03T23:31:11.164Z,7.00
2019-04-03T23:33:39.960Z,6.90
2019-04-03T23:36:08.430Z,7.00
2019-04-03T23:38:36.873Z,7.10
2019-04-03T23:41:06.110Z,7.10
2019-04-03T23:43:35.270Z,7.10
2019-04-03T23:46:03.719Z,7.10
2019-04-03T23:48:32.182Z,7.00
2019-04-03T23:51:00.648Z,7.10
2019-04-03T23:53:31.936Z,7.10
2019-04-03T23:55:59.344Z,7.10
2019-04-03T23:58:27.828Z,7.10
